createdAt,value
2019-01-02T00:00:00.198Z,5.34
2019-01-02T00:30:00.228Z,5.34
2019-01-02T01:00:00.176Z,4
2019-01-02T01:30:00.180Z,5.34
2019-01-02T02:00:00.225Z,6
2019-01-02T02:30:00.175Z,5.34
2019-01-02T03:00:00.220Z,4
2019-01-02T03:30:00.251Z,4.67
2019-01-02T04:00:00.174Z,5.34
2019-01-02T04:30:00.178Z,5.34
2019-01-02T05:00:00.251Z,6
2019-01-02T05:30:00.154Z,4.67
2019-01-02T06:00:00.206Z,4.67
2019-01-02T06:30:00.197Z,5.34
2019-01-02T07:00:00.211Z,4
2019-01-02T07:30:00.238Z,4.67
2019-01-02T08:00:00.217Z,2
2019-01-02T08:30:00.229Z,5.34
2019-01-02T09:00:00.183Z,5.34
2019-01-02T09:30:00.261Z,4
2019-01-02T10:00:00.202Z,4.67
2019-01-02T10:30:00.179Z,2.67
2019-01-02T11:00:00.201Z,5.34
2019-01-02T11:30:00.206Z,4
2019-01-02T12:00:00.167Z,4
2019-01-02T12:30:00.187Z,2.67
2019-01-02T13:00:00.224Z,5.34
2019-01-02T13:30:00.180Z,4.67
2019-01-02T14:00:00.199Z,2.67
2019-01-02T14:30:00.151Z,4
2019-01-02T15:00:00.182Z,5.34
2019-01-02T15:30:00.269Z,0
2019-01-02T16:00:00.195Z,0
2019-01-02T16:30:00.164Z,0
2019-01-02T17:00:00.198Z,0
2019-01-02T17:30:00.228Z,0
2019-01-02T18:00:00.181Z,0
2019-01-02T18:30:00.175Z,1.33
2019-01-02T19:00:05.781Z,2
2019-01-02T19:30:00.192Z,0.67
2019-01-02T20:00:00.226Z,1.33
2019-01-02T20:30:00.179Z,2
2019-01-02T21:00:00.263Z,0
2019-01-02T21:30:00.247Z,0
2019-01-02T22:00:00.181Z,2
2019-01-02T22:30:00.163Z,1.33
2019-01-02T23:00:00.177Z,4
2019-01-02T23:30:00.190Z,2
